sensor_id;sensor_type;location;lat;lon;timestamp;P1;durP1;ratioP1;P2;durP2;ratioP2
64688;SDS011;62504;46.070;14.492;2022-12-18T00:01:29;28.90;;;14.33;;
64688;SDS011;62504;46.070;14.492;2022-12-18T00:04:00;29.77;;;13.80;;
64688;SDS011;62504;46.070;14.492;2022-12-18T00:06:27;29.00;;;13.70;;
64688;SDS011;62504;46.070;14.492;2022-12-18T00:08:54;29.70;;;14.10;;
64688;SDS011;62504;46.070;14.492;2022-12-18T00:11:22;30.97;;;14.57;;
64688;SDS011;62504;46.070;14.492;2022-12-18T00:13:49;29.17;;;13.47;;
64688;SDS011;62504;46.070;14.492;2022-12-18T00:16:16;29.00;;;14.43;;
64688;SDS011;62504;46.070;14.492;2022-12-18T00:18:45;28.97;;;13.57;;
64688;SDS011;62504;46.070;14.492;2022-12-18T00:21:12;31.20;;;14.90;;
64688;SDS011;62504;46.070;14.492;2022-12-18T00:23:39;34.20;;;14.47;;
64688;SDS011;62504;46.070;14.492;2022-12-18T00:26:07;28.60;;;13.90;;
64688;SDS011;62504;46.070;14.492;2022-12-18T00:28:36;27.80;;;13.37;;
64688;SDS011;62504;46.070;14.492;2022-12-18T00:31:09;31.53;;;14.20;;
64688;SDS011;62504;46.070;14.492;2022-12-18T00:33:39;28.37;;;13.47;;
64688;SDS011;62504;46.070;14.492;2022-12-18T00:36:05;27.13;;;13.47;;
64688;SDS011;62504;46.070;14.492;2022-12-18T00:38:37;28.63;;;12.97;;
64688;SDS011;62504;46.070;14.492;2022-12-18T00:41:04;30.13;;;13.70;;
64688;SDS011;62504;46.070;14.492;2022-12-18T00:43:31;29.37;;;13.73;;
64688;SDS011;62504;46.070;14.492;2022-12-18T00:45:57;29.93;;;14.00;;
64688;SDS011;62504;46.070;14.492;2022-12-18T00:48:22;29.73;;;13.60;;
64688;SDS011;62504;46.070;14.492;2022-12-18T00:50:48;30.37;;;13.13;;
64688;SDS011;62504;46.070;14.492;2022-12-18T00:53:14;28.57;;;12.97;;
64688;SDS011;62504;46.070;14.492;2022-12-18T00:55:40;26.83;;;12.93;;
64688;SDS011;62504;46.070;14.492;2022-12-18T00:58:07;28.77;;;13.20;;
64688;SDS011;62504;46.070;14.492;2022-12-18T01:00:33;27.50;;;13.50;;
64688;SDS011;62504;46.070;14.492;2022-12-18T01:02:59;28.67;;;13.43;;
64688;SDS011;62504;46.070;14.492;2022-12-18T01:05:25;26.80;;;13.47;;
64688;SDS011;62504;46.070;14.492;2022-12-18T01:07:51;28.80;;;13.63;;
64688;SDS011;62504;46.070;14.492;2022-12-18T01:10:16;26.90;;;13.27;;
64688;SDS011;62504;46.070;14.492;2022-12-18T01:12:42;26.37;;;13.10;;
64688;SDS011;62504;46.070;14.492;2022-12-18T01:15:09;27.50;;;13.57;;
64688;SDS011;62504;46.070;14.492;2022-12-18T01:17:35;30.80;;;13.70;;
64688;SDS011;62504;46.070;14.492;2022-12-18T01:20:00;28.13;;;13.27;;
64688;SDS011;62504;46.070;14.492;2022-12-18T01:22:26;31.27;;;13.47;;
64688;SDS011;62504;46.070;14.492;2022-12-18T01:24:51;31.17;;;14.00;;
64688;SDS011;62504;46.070;14.492;2022-12-18T01:27:17;28.70;;;13.03;;
64688;SDS011;62504;46.070;14.492;2022-12-18T01:29:43;28.50;;;13.87;;
64688;SDS011;62504;46.070;14.492;2022-12-18T01:32:08;30.30;;;13.07;;
64688;SDS011;62504;46.070;14.492;2022-12-18T01:34:37;28.70;;;13.27;;
64688;SDS011;62504;46.070;14.492;2022-12-18T01:37:04;28.70;;;14.07;;
64688;SDS011;62504;46.070;14.492;2022-12-18T01:39:29;27.97;;;13.53;;
64688;SDS011;62504;46.070;14.492;2022-12-18T01:41:57;29.87;;;13.87;;
64688;SDS011;62504;46.070;14.492;2022-12-18T01:49:57;30.40;;;14.50;;
64688;SDS011;62504;46.070;14.492;2022-12-18T01:52:26;27.93;;;12.93;;
64688;SDS011;62504;46.070;14.492;2022-12-18T01:54:54;27.93;;;12.97;;
64688;SDS011;62504;46.070;14.492;2022-12-18T01:57:20;30.37;;;13.70;;
64688;SDS011;62504;46.070;14.492;2022-12-18T01:59:47;32.50;;;14.37;;
64688;SDS011;62504;46.070;14.492;2022-12-18T02:02:17;28.47;;;13.77;;
64688;SDS011;62504;46.070;14.492;2022-12-18T02:04:43;33.27;;;14.03;;
64688;SDS011;62504;46.070;14.492;2022-12-18T02:10:20;30.07;;;14.20;;
64688;SDS011;62504;46.070;14.492;2022-12-18T02:15:41;34.10;;;14.67;;
64688;SDS011;62504;46.070;14.492;2022-12-18T02:18:19;31.67;;;13.70;;
64688;SDS011;62504;46.070;14.492;2022-12-18T02:23:23;31.57;;;14.37;;
64688;SDS011;62504;46.070;14.492;2022-12-18T02:26:06;32.70;;;14.43;;
64688;SDS011;62504;46.070;14.492;2022-12-18T02:31:21;28.47;;;13.57;;
64688;SDS011;62504;46.070;14.492;2022-12-18T02:33:51;29.73;;;13.13;;
64688;SDS011;62504;46.070;14.492;2022-12-18T02:36:23;30.60;;;13.73;;
64688;SDS011;62504;46.070;14.492;2022-12-18T02:38:52;30.23;;;13.67;;
64688;SDS011;62504;46.070;14.492;2022-12-18T02:41:19;30.83;;;14.07;;
64688;SDS011;62504;46.070;14.492;2022-12-18T02:43:47;31.53;;;14.10;;
64688;SDS011;62504;46.070;14.492;2022-12-18T02:46:25;32.13;;;13.60;;
64688;SDS011;62504;46.070;14.492;2022-12-18T02:49:01;29.03;;;13.43;;
64688;SDS011;62504;46.070;14.492;2022-12-18T02:51:56;25.93;;;12.43;;
64688;SDS011;62504;46.070;14.492;2022-12-18T02:59:58;25.67;;;12.43;;
64688;SDS011;62504;46.070;14.492;2022-12-18T03:02:29;29.67;;;12.97;;
64688;SDS011;62504;46.070;14.492;2022-12-18T03:05:11;23.50;;;12.03;;
64688;SDS011;62504;46.070;14.492;2022-12-18T03:07:54;27.37;;;12.53;;
64688;SDS011;62504;46.070;14.492;2022-12-18T03:10:25;27.47;;;12.90;;
64688;SDS011;62504;46.070;14.492;2022-12-18T03:15:55;30.63;;;13.40;;
64688;SDS011;62504;46.070;14.492;2022-12-18T03:18:24;26.27;;;12.80;;
64688;SDS011;62504;46.070;14.492;2022-12-18T03:21:11;28.90;;;12.77;;
64688;SDS011;62504;46.070;14.492;2022-12-18T03:23:42;27.77;;;12.80;;
64688;SDS011;62504;46.070;14.492;2022-12-18T03:26:12;29.70;;;13.00;;
64688;SDS011;62504;46.070;14.492;2022-12-18T03:28:43;25.20;;;12.03;;
64688;SDS011;62504;46.070;14.492;2022-12-18T03:31:12;27.10;;;11.87;;
64688;SDS011;62504;46.070;14.492;2022-12-18T03:36:05;27.93;;;12.23;;
64688;SDS011;62504;46.070;14.492;2022-12-18T03:38:31;25.63;;;12.03;;
64688;SDS011;62504;46.070;14.492;2022-12-18T03:41:06;24.93;;;12.10;;
64688;SDS011;62504;46.070;14.492;2022-12-18T03:44:00;23.77;;;11.73;;
64688;SDS011;62504;46.070;14.492;2022-12-18T03:47:00;25.97;;;11.17;;
64688;SDS011;62504;46.070;14.492;2022-12-18T03:52:02;25.40;;;12.30;;
64688;SDS011;62504;46.070;14.492;2022-12-18T03:54:35;22.87;;;11.10;;
64688;SDS011;62504;46.070;14.492;2022-12-18T03:57:07;22.60;;;10.97;;
64688;SDS011;62504;46.070;14.492;2022-12-18T03:59:38;24.07;;;11.67;;
64688;SDS011;62504;46.070;14.492;2022-12-18T04:02:06;24.97;;;11.67;;
64688;SDS011;62504;46.070;14.492;2022-12-18T04:04:33;23.37;;;11.67;;
64688;SDS011;62504;46.070;14.492;2022-12-18T04:07:00;23.23;;;11.07;;
64688;SDS011;62504;46.070;14.492;2022-12-18T04:09:27;22.30;;;10.97;;
64688;SDS011;62504;46.070;14.492;2022-12-18T04:11:53;23.20;;;10.83;;
64688;SDS011;62504;46.070;14.492;2022-12-18T04:14:19;23.67;;;11.13;;
64688;SDS011;62504;46.070;14.492;2022-12-18T04:16:45;23.27;;;11.23;;
64688;SDS011;62504;46.070;14.492;2022-12-18T04:19:10;24.03;;;11.30;;
64688;SDS011;62504;46.070;14.492;2022-12-18T04:21:36;25.40;;;11.23;;
64688;SDS011;62504;46.070;14.492;2022-12-18T04:24:02;22.20;;;11.27;;
64688;SDS011;62504;46.070;14.492;2022-12-18T04:26:27;24.23;;;11.07;;
64688;SDS011;62504;46.070;14.492;2022-12-18T04:28:53;23.83;;;11.17;;
64688;SDS011;62504;46.070;14.492;2022-12-18T04:31:19;24.40;;;11.43;;
64688;SDS011;62504;46.070;14.492;2022-12-18T04:33:44;24.13;;;11.40;;
64688;SDS011;62504;46.070;14.492;2022-12-18T04:36:10;23.67;;;11.13;;
64688;SDS011;62504;46.070;14.492;2022-12-18T04:38:37;22.30;;;10.03;;
64688;SDS011;62504;46.070;14.492;2022-12-18T04:41:03;20.57;;;9.63;;
64688;SDS011;62504;46.070;14.492;2022-12-18T04:43:29;21.30;;;10.17;;
64688;SDS011;62504;46.070;14.492;2022-12-18T04:46:00;23.63;;;10.93;;
64688;SDS011;62504;46.070;14.492;2022-12-18T04:48:32;19.97;;;10.07;;
64688;SDS011;62504;46.070;14.492;2022-12-18T04:50:58;21.80;;;10.67;;
64688;SDS011;62504;46.070;14.492;2022-12-18T04:53:24;22.73;;;10.47;;
64688;SDS011;62504;46.070;14.492;2022-12-18T04:55:50;20.60;;;10.50;;
64688;SDS011;62504;46.070;14.492;2022-12-18T04:58:15;21.20;;;10.00;;
64688;SDS011;62504;46.070;14.492;2022-12-18T05:00:41;21.53;;;10.70;;
64688;SDS011;62504;46.070;14.492;2022-12-18T05:03:06;23.63;;;10.37;;
64688;SDS011;62504;46.070;14.492;2022-12-18T05:05:34;22.20;;;10.60;;
64688;SDS011;62504;46.070;14.492;2022-12-18T05:08:00;21.87;;;10.03;;
64688;SDS011;62504;46.070;14.492;2022-12-18T05:10:25;21.10;;;9.90;;
64688;SDS011;62504;46.070;14.492;2022-12-18T05:12:51;22.10;;;10.33;;
64688;SDS011;62504;46.070;14.492;2022-12-18T05:15:29;21.77;;;10.13;;
64688;SDS011;62504;46.070;14.492;2022-12-18T05:17:56;23.10;;;10.57;;
64688;SDS011;62504;46.070;14.492;2022-12-18T05:20:23;22.33;;;10.80;;
64688;SDS011;62504;46.070;14.492;2022-12-18T05:22:50;23.47;;;10.67;;
64688;SDS011;62504;46.070;14.492;2022-12-18T05:25:16;22.43;;;10.93;;
64688;SDS011;62504;46.070;14.492;2022-12-18T05:27:41;24.93;;;11.67;;
64688;SDS011;62504;46.070;14.492;2022-12-18T05:30:07;25.07;;;11.30;;
64688;SDS011;62504;46.070;14.492;2022-12-18T05:32:34;23.73;;;11.20;;
64688;SDS011;62504;46.070;14.492;2022-12-18T05:34:59;23.00;;;11.17;;
64688;SDS011;62504;46.070;14.492;2022-12-18T05:37:25;23.10;;;10.77;;
64688;SDS011;62504;46.070;14.492;2022-12-18T05:39:51;22.50;;;11.40;;
64688;SDS011;62504;46.070;14.492;2022-12-18T05:42:16;25.20;;;12.43;;
64688;SDS011;62504;46.070;14.492;2022-12-18T05:44:42;22.53;;;10.43;;
64688;SDS011;62504;46.070;14.492;2022-12-18T05:47:08;21.30;;;10.13;;
64688;SDS011;62504;46.070;14.492;2022-12-18T05:49:34;22.13;;;10.67;;
64688;SDS011;62504;46.070;14.492;2022-12-18T05:51:59;22.87;;;10.63;;
64688;SDS011;62504;46.070;14.492;2022-12-18T05:54:28;22.10;;;10.40;;
64688;SDS011;62504;46.070;14.492;2022-12-18T05:56:54;22.13;;;10.27;;
64688;SDS011;62504;46.070;14.492;2022-12-18T05:59:20;21.23;;;10.33;;
64688;SDS011;62504;46.070;14.492;2022-12-18T06:01:45;22.37;;;11.30;;
64688;SDS011;62504;46.070;14.492;2022-12-18T06:04:11;21.10;;;10.33;;
64688;SDS011;62504;46.070;14.492;2022-12-18T06:06:37;21.90;;;10.83;;
64688;SDS011;62504;46.070;14.492;2022-12-18T06:09:03;21.00;;;10.07;;
64688;SDS011;62504;46.070;14.492;2022-12-18T06:11:34;22.37;;;11.27;;
64688;SDS011;62504;46.070;14.492;2022-12-18T06:14:04;23.57;;;11.80;;
64688;SDS011;62504;46.070;14.492;2022-12-18T06:16:31;21.90;;;10.63;;
64688;SDS011;62504;46.070;14.492;2022-12-18T06:19:00;23.83;;;10.97;;
64688;SDS011;62504;46.070;14.492;2022-12-18T06:21:28;24.73;;;11.73;;
64688;SDS011;62504;46.070;14.492;2022-12-18T06:23:54;27.67;;;12.17;;
64688;SDS011;62504;46.070;14.492;2022-12-18T06:26:20;27.77;;;12.80;;
64688;SDS011;62504;46.070;14.492;2022-12-18T06:28:45;22.93;;;11.00;;
64688;SDS011;62504;46.070;14.492;2022-12-18T06:31:11;30.37;;;12.73;;
64688;SDS011;62504;46.070;14.492;2022-12-18T06:33:37;26.43;;;12.33;;
64688;SDS011;62504;46.070;14.492;2022-12-18T06:36:04;29.90;;;13.50;;
64688;SDS011;62504;46.070;14.492;2022-12-18T06:38:36;25.37;;;11.97;;
64688;SDS011;62504;46.070;14.492;2022-12-18T06:41:12;28.50;;;12.80;;
64688;SDS011;62504;46.070;14.492;2022-12-18T06:43:39;30.50;;;13.67;;
64688;SDS011;62504;46.070;14.492;2022-12-18T06:46:05;27.40;;;12.47;;
64688;SDS011;62504;46.070;14.492;2022-12-18T06:48:31;28.03;;;12.80;;
64688;SDS011;62504;46.070;14.492;2022-12-18T06:50:57;30.23;;;13.47;;
64688;SDS011;62504;46.070;14.492;2022-12-18T06:53:23;29.83;;;13.20;;
64688;SDS011;62504;46.070;14.492;2022-12-18T06:55:49;30.73;;;13.73;;
64688;SDS011;62504;46.070;14.492;2022-12-18T06:58:14;30.50;;;12.93;;
64688;SDS011;62504;46.070;14.492;2022-12-18T07:00:40;31.87;;;13.83;;
64688;SDS011;62504;46.070;14.492;2022-12-18T07:03:06;27.77;;;12.57;;
64688;SDS011;62504;46.070;14.492;2022-12-18T07:05:32;35.37;;;14.67;;
64688;SDS011;62504;46.070;14.492;2022-12-18T07:07:58;26.93;;;13.10;;
64688;SDS011;62504;46.070;14.492;2022-12-18T07:10:23;30.87;;;14.23;;
64688;SDS011;62504;46.070;14.492;2022-12-18T07:12:49;35.47;;;15.40;;
64688;SDS011;62504;46.070;14.492;2022-12-18T07:15:15;34.83;;;15.23;;
64688;SDS011;62504;46.070;14.492;2022-12-18T07:17:40;34.63;;;15.13;;
64688;SDS011;62504;46.070;14.492;2022-12-18T07:20:06;35.57;;;15.80;;
64688;SDS011;62504;46.070;14.492;2022-12-18T07:22:32;33.40;;;15.33;;
64688;SDS011;62504;46.070;14.492;2022-12-18T07:24:58;36.27;;;15.13;;
64688;SDS011;62504;46.070;14.492;2022-12-18T07:27:23;33.03;;;15.33;;
64688;SDS011;62504;46.070;14.492;2022-12-18T07:29:49;30.97;;;14.33;;
64688;SDS011;62504;46.070;14.492;2022-12-18T07:32:15;33.40;;;14.30;;
64688;SDS011;62504;46.070;14.492;2022-12-18T07:34:40;43.97;;;16.80;;
64688;SDS011;62504;46.070;14.492;2022-12-18T07:37:06;41.10;;;17.13;;
64688;SDS011;62504;46.070;14.492;2022-12-18T07:39:32;40.77;;;16.90;;
64688;SDS011;62504;46.070;14.492;2022-12-18T07:41:57;32.17;;;14.87;;
64688;SDS011;62504;46.070;14.492;2022-12-18T07:44:41;34.30;;;15.43;;
64688;SDS011;62504;46.070;14.492;2022-12-18T07:47:07;31.00;;;14.80;;
64688;SDS011;62504;46.070;14.492;2022-12-18T07:49:33;35.10;;;16.10;;
64688;SDS011;62504;46.070;14.492;2022-12-18T07:51:58;33.73;;;15.33;;
64688;SDS011;62504;46.070;14.492;2022-12-18T07:54:24;34.27;;;16.20;;
64688;SDS011;62504;46.070;14.492;2022-12-18T07:56:50;35.83;;;17.43;;
64688;SDS011;62504;46.070;14.492;2022-12-18T07:59:17;35.93;;;17.47;;
64688;SDS011;62504;46.070;14.492;2022-12-18T08:01:42;36.00;;;17.57;;
64688;SDS011;62504;46.070;14.492;2022-12-18T08:04:08;35.40;;;16.50;;
64688;SDS011;62504;46.070;14.492;2022-12-18T08:06:34;36.87;;;16.83;;
64688;SDS011;62504;46.070;14.492;2022-12-18T08:09:00;33.30;;;15.27;;
64688;SDS011;62504;46.070;14.492;2022-12-18T08:11:26;32.60;;;15.87;;
64688;SDS011;62504;46.070;14.492;2022-12-18T08:13:53;30.60;;;14.83;;
64688;SDS011;62504;46.070;14.492;2022-12-18T08:16:19;31.67;;;14.87;;
64688;SDS011;62504;46.070;14.492;2022-12-18T08:18:46;36.67;;;17.00;;
64688;SDS011;62504;46.070;14.492;2022-12-18T08:21:19;40.13;;;19.80;;
64688;SDS011;62504;46.070;14.492;2022-12-18T08:23:50;39.93;;;18.23;;
64688;SDS011;62504;46.070;14.492;2022-12-18T08:26:17;36.90;;;17.33;;
64688;SDS011;62504;46.070;14.492;2022-12-18T08:28:43;36.80;;;17.33;;
64688;SDS011;62504;46.070;14.492;2022-12-18T08:31:09;34.60;;;16.40;;
64688;SDS011;62504;46.070;14.492;2022-12-18T08:33:36;43.90;;;20.97;;
64688;SDS011;62504;46.070;14.492;2022-12-18T08:36:03;42.97;;;21.13;;
64688;SDS011;62504;46.070;14.492;2022-12-18T08:38:29;33.13;;;16.57;;
64688;SDS011;62504;46.070;14.492;2022-12-18T08:40:58;33.37;;;16.60;;
64688;SDS011;62504;46.070;14.492;2022-12-18T08:43:25;33.10;;;15.33;;
64688;SDS011;62504;46.070;14.492;2022-12-18T08:46:10;32.93;;;15.90;;
64688;SDS011;62504;46.070;14.492;2022-12-18T08:48:35;28.63;;;13.50;;
64688;SDS011;62504;46.070;14.492;2022-12-18T08:51:01;28.70;;;13.70;;
64688;SDS011;62504;46.070;14.492;2022-12-18T08:53:27;29.03;;;14.40;;
64688;SDS011;62504;46.070;14.492;2022-12-18T08:55:52;34.37;;;15.43;;
64688;SDS011;62504;46.070;14.492;2022-12-18T08:58:19;27.40;;;12.87;;
64688;SDS011;62504;46.070;14.492;2022-12-18T09:00:44;28.30;;;14.27;;
64688;SDS011;62504;46.070;14.492;2022-12-18T09:03:14;28.47;;;13.67;;
64688;SDS011;62504;46.070;14.492;2022-12-18T09:05:41;26.53;;;13.50;;
64688;SDS011;62504;46.070;14.492;2022-12-18T09:08:07;28.73;;;13.37;;
64688;SDS011;62504;46.070;14.492;2022-12-18T09:10:32;31.30;;;15.17;;
64688;SDS011;62504;46.070;14.492;2022-12-18T09:12:58;39.60;;;17.10;;
64688;SDS011;62504;46.070;14.492;2022-12-18T09:15:24;41.20;;;19.07;;
64688;SDS011;62504;46.070;14.492;2022-12-18T09:17:50;29.53;;;14.17;;
64688;SDS011;62504;46.070;14.492;2022-12-18T09:20:17;26.20;;;13.10;;
64688;SDS011;62504;46.070;14.492;2022-12-18T09:22:44;32.97;;;15.43;;
64688;SDS011;62504;46.070;14.492;2022-12-18T09:25:12;26.33;;;13.53;;
64688;SDS011;62504;46.070;14.492;2022-12-18T09:27:38;28.17;;;14.23;;
64688;SDS011;62504;46.070;14.492;2022-12-18T09:30:04;27.23;;;13.20;;
64688;SDS011;62504;46.070;14.492;2022-12-18T09:32:30;30.33;;;14.50;;
64688;SDS011;62504;46.070;14.492;2022-12-18T09:34:56;35.90;;;15.57;;
64688;SDS011;62504;46.070;14.492;2022-12-18T09:37:21;30.63;;;13.63;;
64688;SDS011;62504;46.070;14.492;2022-12-18T09:39:47;29.67;;;14.00;;
64688;SDS011;62504;46.070;14.492;2022-12-18T09:42:16;29.47;;;13.40;;
64688;SDS011;62504;46.070;14.492;2022-12-18T09:44:47;31.17;;;13.90;;
64688;SDS011;62504;46.070;14.492;2022-12-18T09:49:58;28.50;;;12.43;;
64688;SDS011;62504;46.070;14.492;2022-12-18T09:52:28;29.30;;;12.83;;
64688;SDS011;62504;46.070;14.492;2022-12-18T09:57:35;30.30;;;12.63;;
64688;SDS011;62504;46.070;14.492;2022-12-18T10:00:17;27.07;;;12.50;;
64688;SDS011;62504;46.070;14.492;2022-12-18T10:02:47;27.97;;;12.00;;
64688;SDS011;62504;46.070;14.492;2022-12-18T10:05:17;24.53;;;11.47;;
64688;SDS011;62504;46.070;14.492;2022-12-18T10:11:20;27.07;;;12.30;;
64688;SDS011;62504;46.070;14.492;2022-12-18T10:14:00;26.13;;;11.83;;
64688;SDS011;62504;46.070;14.492;2022-12-18T10:25:01;27.77;;;12.50;;
64688;SDS011;62504;46.070;14.492;2022-12-18T10:27:29;27.53;;;12.90;;
64688;SDS011;62504;46.070;14.492;2022-12-18T10:29:56;27.07;;;12.63;;
64688;SDS011;62504;46.070;14.492;2022-12-18T10:32:23;29.53;;;12.97;;
64688;SDS011;62504;46.070;14.492;2022-12-18T10:34:51;30.30;;;13.87;;
64688;SDS011;62504;46.070;14.492;2022-12-18T10:37:20;30.27;;;13.33;;
64688;SDS011;62504;46.070;14.492;2022-12-18T10:42:44;24.43;;;11.07;;
64688;SDS011;62504;46.070;14.492;2022-12-18T10:45:11;21.43;;;9.43;;
64688;SDS011;62504;46.070;14.492;2022-12-18T10:47:41;23.30;;;10.20;;
64688;SDS011;62504;46.070;14.492;2022-12-18T10:53:00;19.77;;;9.37;;
64688;SDS011;62504;46.070;14.492;2022-12-18T10:55:31;16.53;;;7.60;;
64688;SDS011;62504;46.070;14.492;2022-12-18T11:01:01;15.73;;;7.17;;
64688;SDS011;62504;46.070;14.492;2022-12-18T11:06:23;16.00;;;7.30;;
64688;SDS011;62504;46.070;14.492;2022-12-18T11:09:03;17.33;;;7.10;;
64688;SDS011;62504;46.070;14.492;2022-12-18T11:11:30;14.53;;;7.17;;
64688;SDS011;62504;46.070;14.492;2022-12-18T11:16:23;22.00;;;8.57;;
64688;SDS011;62504;46.070;14.492;2022-12-18T11:18:48;15.30;;;7.20;;
64688;SDS011;62504;46.070;14.492;2022-12-18T11:21:14;15.87;;;7.83;;
64688;SDS011;62504;46.070;14.492;2022-12-18T11:23:46;16.43;;;7.03;;
64688;SDS011;62504;46.070;14.492;2022-12-18T11:26:15;15.90;;;7.50;;
64688;SDS011;62504;46.070;14.492;2022-12-18T11:34:04;16.47;;;7.30;;
64688;SDS011;62504;46.070;14.492;2022-12-18T11:36:44;17.30;;;7.60;;
64688;SDS011;62504;46.070;14.492;2022-12-18T11:39:17;16.30;;;7.60;;
64688;SDS011;62504;46.070;14.492;2022-12-18T11:41:57;17.37;;;8.03;;
64688;SDS011;62504;46.070;14.492;2022-12-18T11:49:36;16.80;;;7.93;;
64688;SDS011;62504;46.070;14.492;2022-12-18T11:54:38;16.37;;;7.20;;
64688;SDS011;62504;46.070;14.492;2022-12-18T12:00:12;17.93;;;8.20;;
64688;SDS011;62504;46.070;14.492;2022-12-18T12:08:07;19.50;;;8.40;;
64688;SDS011;62504;46.070;14.492;2022-12-18T12:16:17;22.30;;;8.73;;
64688;SDS011;62504;46.070;14.492;2022-12-18T12:21:38;22.07;;;10.20;;
64688;SDS011;62504;46.070;14.492;2022-12-18T12:24:29;30.03;;;12.53;;
64688;SDS011;62504;46.070;14.492;2022-12-18T12:27:05;23.60;;;9.90;;
64688;SDS011;62504;46.070;14.492;2022-12-18T12:37:40;143.10;;;45.17;;
64688;SDS011;62504;46.070;14.492;2022-12-18T12:40:26;34.17;;;14.40;;
64688;SDS011;62504;46.070;14.492;2022-12-18T12:42:59;48.03;;;19.00;;
64688;SDS011;62504;46.070;14.492;2022-12-18T12:45:42;26.53;;;12.03;;
64688;SDS011;62504;46.070;14.492;2022-12-18T12:48:39;20.60;;;9.07;;
64688;SDS011;62504;46.070;14.492;2022-12-18T12:51:18;20.97;;;9.10;;
64688;SDS011;62504;46.070;14.492;2022-12-18T12:53:47;24.03;;;10.53;;
64688;SDS011;62504;46.070;14.492;2022-12-18T12:56:14;21.33;;;9.53;;
64688;SDS011;62504;46.070;14.492;2022-12-18T12:58:55;21.93;;;9.50;;
64688;SDS011;62504;46.070;14.492;2022-12-18T13:04:21;17.13;;;7.70;;
64688;SDS011;62504;46.070;14.492;2022-12-18T13:07:00;18.23;;;8.07;;
64688;SDS011;62504;46.070;14.492;2022-12-18T13:09:31;16.30;;;7.97;;
64688;SDS011;62504;46.070;14.492;2022-12-18T13:12:02;20.23;;;8.77;;
64688;SDS011;62504;46.070;14.492;2022-12-18T13:15:20;20.67;;;8.77;;
64688;SDS011;62504;46.070;14.492;2022-12-18T13:17:48;21.83;;;8.00;;
64688;SDS011;62504;46.070;14.492;2022-12-18T13:20:14;19.87;;;8.63;;
64688;SDS011;62504;46.070;14.492;2022-12-18T13:22:49;16.60;;;8.27;;
64688;SDS011;62504;46.070;14.492;2022-12-18T13:43:53;18.23;;;8.03;;
64688;SDS011;62504;46.070;14.492;2022-12-18T13:49:18;21.93;;;9.20;;
64688;SDS011;62504;46.070;14.492;2022-12-18T13:51:52;21.20;;;9.13;;
64688;SDS011;62504;46.070;14.492;2022-12-18T13:57:02;20.77;;;8.73;;
64688;SDS011;62504;46.070;14.492;2022-12-18T13:59:33;21.33;;;8.57;;
64688;SDS011;62504;46.070;14.492;2022-12-18T14:02:14;20.27;;;8.77;;
64688;SDS011;62504;46.070;14.492;2022-12-18T14:04:41;20.43;;;9.43;;
64688;SDS011;62504;46.070;14.492;2022-12-18T14:07:20;19.17;;;8.83;;
64688;SDS011;62504;46.070;14.492;2022-12-18T14:12:23;20.50;;;9.27;;
64688;SDS011;62504;46.070;14.492;2022-12-18T14:15:52;18.80;;;8.20;;
64688;SDS011;62504;46.070;14.492;2022-12-18T14:20:45;19.07;;;8.67;;
64688;SDS011;62504;46.070;14.492;2022-12-18T14:23:29;19.67;;;9.03;;
64688;SDS011;62504;46.070;14.492;2022-12-18T14:26:02;22.47;;;10.37;;
64688;SDS011;62504;46.070;14.492;2022-12-18T14:28:44;25.33;;;9.97;;
64688;SDS011;62504;46.070;14.492;2022-12-18T14:31:18;20.40;;;8.97;;
64688;SDS011;62504;46.070;14.492;2022-12-18T14:33:44;20.60;;;9.17;;
64688;SDS011;62504;46.070;14.492;2022-12-18T14:36:15;24.03;;;9.63;;
64688;SDS011;62504;46.070;14.492;2022-12-18T14:38:43;19.13;;;9.07;;
64688;SDS011;62504;46.070;14.492;2022-12-18T14:41:15;21.67;;;9.67;;
64688;SDS011;62504;46.070;14.492;2022-12-18T14:43:43;21.93;;;9.40;;
64688;SDS011;62504;46.070;14.492;2022-12-18T14:46:30;23.30;;;10.63;;
64688;SDS011;62504;46.070;14.492;2022-12-18T14:48:58;21.40;;;9.83;;
64688;SDS011;62504;46.070;14.492;2022-12-18T14:51:26;25.77;;;11.80;;
64688;SDS011;62504;46.070;14.492;2022-12-18T14:54:03;23.90;;;10.70;;
64688;SDS011;62504;46.070;14.492;2022-12-18T14:56:37;23.03;;;10.90;;
64688;SDS011;62504;46.070;14.492;2022-12-18T14:59:19;21.47;;;9.53;;
64688;SDS011;62504;46.070;14.492;2022-12-18T15:04:36;19.37;;;9.03;;
64688;SDS011;62504;46.070;14.492;2022-12-18T15:10:15;17.80;;;8.63;;
64688;SDS011;62504;46.070;14.492;2022-12-18T15:12:49;22.03;;;9.00;;
64688;SDS011;62504;46.070;14.492;2022-12-18T15:15:41;21.10;;;8.77;;
64688;SDS011;62504;46.070;14.492;2022-12-18T15:18:11;23.13;;;9.67;;
64688;SDS011;62504;46.070;14.492;2022-12-18T15:20:41;21.97;;;9.00;;
64688;SDS011;62504;46.070;14.492;2022-12-18T15:25:44;24.90;;;10.20;;
64688;SDS011;62504;46.070;14.492;2022-12-18T15:28:19;23.93;;;9.13;;
64688;SDS011;62504;46.070;14.492;2022-12-18T15:36:22;22.27;;;9.13;;
64688;SDS011;62504;46.070;14.492;2022-12-18T15:38:49;19.20;;;8.17;;
64688;SDS011;62504;46.070;14.492;2022-12-18T15:41:16;17.67;;;8.27;;
64688;SDS011;62504;46.070;14.492;2022-12-18T15:43:44;19.50;;;8.20;;
64688;SDS011;62504;46.070;14.492;2022-12-18T15:46:12;15.90;;;7.10;;
64688;SDS011;62504;46.070;14.492;2022-12-18T15:48:40;18.80;;;8.47;;
64688;SDS011;62504;46.070;14.492;2022-12-18T15:51:17;17.33;;;8.17;;
64688;SDS011;62504;46.070;14.492;2022-12-18T15:53:50;20.63;;;8.47;;
64688;SDS011;62504;46.070;14.492;2022-12-18T15:56:18;24.60;;;10.97;;
64688;SDS011;62504;46.070;14.492;2022-12-18T15:59:13;21.77;;;8.93;;
64688;SDS011;62504;46.070;14.492;2022-12-18T16:01:40;29.03;;;9.40;;
64688;SDS011;62504;46.070;14.492;2022-12-18T16:04:11;26.80;;;10.37;;
64688;SDS011;62504;46.070;14.492;2022-12-18T16:06:38;30.07;;;11.63;;
64688;SDS011;62504;46.070;14.492;2022-12-18T16:09:04;19.60;;;8.60;;
64688;SDS011;62504;46.070;14.492;2022-12-18T16:11:30;20.93;;;9.47;;
64688;SDS011;62504;46.070;14.492;2022-12-18T16:14:24;21.87;;;8.83;;
64688;SDS011;62504;46.070;14.492;2022-12-18T16:17:01;18.73;;;8.40;;
64688;SDS011;62504;46.070;14.492;2022-12-18T16:19:30;17.90;;;7.77;;
64688;SDS011;62504;46.070;14.492;2022-12-18T16:21:56;24.60;;;10.70;;
64688;SDS011;62504;46.070;14.492;2022-12-18T16:24:24;23.43;;;10.20;;
64688;SDS011;62504;46.070;14.492;2022-12-18T16:26:52;18.43;;;8.40;;
64688;SDS011;62504;46.070;14.492;2022-12-18T16:29:18;19.40;;;8.13;;
64688;SDS011;62504;46.070;14.492;2022-12-18T16:31:49;20.67;;;8.93;;
64688;SDS011;62504;46.070;14.492;2022-12-18T16:34:31;19.00;;;8.63;;
64688;SDS011;62504;46.070;14.492;2022-12-18T16:36:59;20.47;;;8.60;;
64688;SDS011;62504;46.070;14.492;2022-12-18T16:39:26;19.87;;;8.30;;
64688;SDS011;62504;46.070;14.492;2022-12-18T16:41:52;23.40;;;9.90;;
64688;SDS011;62504;46.070;14.492;2022-12-18T16:44:18;20.43;;;8.30;;
64688;SDS011;62504;46.070;14.492;2022-12-18T16:46:44;20.73;;;8.80;;
64688;SDS011;62504;46.070;14.492;2022-12-18T16:49:13;21.37;;;9.03;;
64688;SDS011;62504;46.070;14.492;2022-12-18T16:51:40;23.17;;;9.53;;